createdAt,value
2022-09-15T14:01:39.856Z,9.00
2022-09-15T14:01:49.778Z,10.00
2022-09-15T14:01:59.946Z,8.00
2022-09-15T14:02:09.883Z,9.00
2022-09-15T14:02:20.231Z,9.00
2022-09-15T14:02:29.865Z,10.00
2022-09-15T14:02:39.799Z,7.00
2022-09-15T14:02:49.744Z,14.00
2022-09-15T14:02:59.737Z,14.00
2022-09-15T14:03:09.739Z,11.00
2022-09-15T14:03:19.738Z,11.00
2022-09-15T14:03:29.739Z,9.00
2022-09-15T14:03:39.740Z,11.00
2022-09-15T14:03:49.739Z,10.00
2022-09-15T14:03:59.742Z,11.00
2022-09-15T14:04:09.745Z,11.00
2022-09-15T14:04:19.743Z,11.00
2022-09-15T14:04:29.742Z,14.00
2022-09-15T14:04:39.745Z,13.00
2022-09-15T14:04:49.744Z,12.00
2022-09-15T14:04:59.747Z,11.00
2022-09-15T14:05:09.747Z,10.00
2022-09-15T14:05:19.749Z,10.00
2022-09-15T14:05:29.746Z,10.00
2022-09-15T14:05:39.748Z,10.00
2022-09-15T14:05:49.750Z,10.00
2022-09-15T14:05:59.755Z,11.00
2022-09-15T14:06:09.751Z,10.00
2022-09-15T14:06:19.751Z,10.00
2022-09-15T14:06:29.754Z,10.00
2022-09-15T14:06:39.757Z,10.00
2022-09-15T14:06:49.754Z,13.00
2022-09-15T14:07:07.751Z,11.00
2022-09-15T14:07:09.805Z,8.00
2022-09-15T14:07:19.760Z,10.00
2022-09-15T14:07:29.758Z,9.00
2022-09-15T14:07:39.760Z,8.00
2022-09-15T14:07:52.202Z,14.00
2022-09-15T14:08:01.238Z,13.00
2022-09-15T14:08:09.761Z,13.00
2022-09-15T14:08:19.766Z,13.00
2022-09-15T14:08:29.765Z,11.00
2022-09-15T14:08:39.776Z,1.00
2022-09-15T14:08:49.764Z,1.00
2022-09-15T14:08:59.772Z,1.00
2022-09-15T14:09:09.772Z,1.00
2022-09-15T14:09:19.841Z,1.00
2022-09-15T14:09:29.769Z,1.00
2022-09-15T14:09:39.778Z,1.00
2022-09-15T14:09:49.787Z,1.00
2022-09-15T14:09:59.805Z,1.00
2022-09-15T14:10:09.778Z,1.00
2022-09-15T14:10:19.781Z,1.00
2022-09-15T14:10:29.777Z,13.00
2022-09-15T14:10:39.778Z,14.00
2022-09-15T14:10:49.787Z,13.00
2022-09-15T14:10:59.779Z,13.00
2022-09-15T14:11:09.780Z,12.00
2022-09-15T14:11:19.816Z,12.00
2022-09-15T14:11:29.782Z,12.00
2022-09-15T14:11:39.803Z,11.00
2022-09-15T14:11:49.955Z,12.00
2022-09-15T14:11:59.785Z,11.00
2022-09-15T14:12:09.780Z,9.00
2022-09-15T14:12:19.783Z,6.00
2022-09-15T14:12:29.783Z,5.00
2022-09-15T14:12:39.794Z,8.00
2022-09-15T14:12:49.784Z,8.00
2022-09-15T14:12:59.790Z,9.00
2022-09-15T14:13:09.781Z,12.00
2022-09-15T14:13:19.788Z,11.00
2022-09-15T14:13:29.789Z,11.00
2022-09-15T14:13:39.794Z,11.00
2022-09-15T14:13:49.790Z,11.00
2022-09-15T14:13:59.790Z,11.00
2022-09-15T14:14:09.811Z,11.00
2022-09-15T14:14:19.791Z,12.00
2022-09-15T14:14:29.795Z,11.00
2022-09-15T14:14:39.797Z,11.00
2022-09-15T14:14:49.792Z,11.00
2022-09-15T14:14:59.794Z,13.00
2022-09-15T14:15:09.794Z,14.00
2022-09-15T14:15:19.799Z,14.00
2022-09-15T14:15:29.798Z,14.00
2022-09-15T14:15:39.800Z,15.00
2022-09-15T14:15:49.803Z,15.00
2022-09-15T14:15:59.799Z,14.00
2022-09-15T14:16:12.443Z,13.00
2022-09-15T14:16:19.870Z,15.00
2022-09-15T14:16:29.858Z,18.00
2022-09-15T14:16:39.864Z,14.00
2022-09-15T14:16:49.883Z,19.00
2022-09-15T14:16:59.864Z,22.00
2022-09-15T14:17:09.857Z,15.00
2022-09-15T14:17:19.807Z,15.00
2022-09-15T14:17:29.811Z,15.00
2022-09-15T14:17:39.814Z,15.00
2022-09-15T14:17:49.811Z,15.00
2022-09-15T14:17:59.815Z,14.00
2022-09-15T14:18:09.813Z,14.00
2022-09-15T14:18:19.811Z,14.00
2022-09-15T14:18:29.813Z,14.00
2022-09-15T14:18:39.814Z,15.00
2022-09-15T14:18:49.812Z,15.00
2022-09-15T14:18:59.819Z,15.00
2022-09-15T14:19:09.836Z,15.00
2022-09-15T14:19:19.816Z,14.00
2022-09-15T14:19:29.815Z,14.00
2022-09-15T14:19:39.820Z,14.00
2022-09-15T14:19:49.820Z,13.00
2022-09-15T14:19:59.917Z,9.00
2022-09-15T14:20:10.117Z,3.00
2022-09-15T14:20:19.824Z,8.00
2022-09-15T14:20:29.821Z,4.00
2022-09-15T14:27:24.520Z,28.00
2022-09-15T14:27:34.506Z,29.00
2022-09-15T14:27:44.526Z,13.00
2022-09-15T14:27:54.517Z,153.00
2022-09-15T14:28:04.524Z,286.00
2022-09-15T14:28:14.511Z,268.00
2022-09-15T14:28:27.300Z,251.00
2022-09-15T14:28:35.513Z,232.00
2022-09-15T14:28:44.511Z,216.00
2022-09-15T14:28:54.513Z,198.00
2022-09-15T14:29:04.520Z,187.00
2022-09-15T14:29:14.520Z,172.00
2022-09-15T14:29:24.522Z,163.00
2022-09-15T14:29:34.517Z,156.00
2022-09-15T14:29:44.523Z,152.00
2022-09-15T14:29:54.525Z,149.00
2022-09-15T14:30:04.524Z,149.00
2022-09-15T14:30:14.530Z,155.00
2022-09-15T14:30:24.524Z,161.00
2022-09-15T14:30:34.523Z,175.00
2022-09-15T14:30:44.529Z,189.00
2022-09-15T14:30:54.525Z,204.00
2022-09-15T14:31:04.525Z,216.00
2022-09-15T14:31:14.550Z,226.00
2022-09-15T14:31:24.647Z,233.00
2022-09-15T14:31:34.580Z,237.00
2022-09-15T14:31:44.588Z,244.00
2022-09-15T14:31:54.615Z,250.00
2022-09-15T14:32:04.579Z,257.00
2022-09-15T14:32:14.573Z,257.00
2022-09-15T14:32:24.534Z,258.00
2022-09-15T14:32:34.535Z,260.00
2022-09-15T14:32:44.552Z,261.00
2022-09-15T14:32:54.537Z,260.00
2022-09-15T14:33:04.541Z,258.00
2022-09-15T14:33:14.538Z,257.00
2022-09-15T14:33:24.538Z,257.00
2022-09-15T14:33:37.919Z,255.00
2022-09-15T14:33:44.586Z,256.00
2022-09-15T14:33:54.593Z,254.00
2022-09-15T14:34:04.542Z,251.00
2022-09-15T14:34:14.560Z,245.00
2022-09-15T14:34:24.547Z,245.00
2022-09-15T14:34:34.583Z,239.00
2022-09-15T14:34:44.598Z,232.00
2022-09-15T14:34:54.572Z,228.00
2022-09-15T14:35:04.547Z,221.00
2022-09-15T14:35:17.352Z,216.00
2022-09-15T14:35:25.550Z,210.00
2022-09-15T14:35:34.548Z,203.00
2022-09-15T14:35:44.549Z,197.00
2022-09-15T14:35:54.551Z,191.00
2022-09-15T14:36:04.555Z,186.00
2022-09-15T14:36:14.556Z,179.00
2022-09-15T14:36:24.554Z,174.00
2022-09-15T14:36:34.558Z,170.00
2022-09-15T14:36:44.559Z,167.00
2022-09-15T14:36:54.562Z,166.00
2022-09-15T14:37:04.555Z,167.00
2022-09-15T14:37:14.586Z,171.00
2022-09-15T14:37:24.561Z,173.00
2022-09-15T14:37:34.558Z,175.00
2022-09-15T14:37:44.559Z,180.00
2022-09-15T14:37:54.561Z,181.00
2022-09-15T14:38:04.608Z,184.00
2022-09-15T14:38:14.574Z,183.00
2022-09-15T14:38:24.562Z,183.00
2022-09-15T14:38:34.562Z,183.00
2022-09-15T14:38:44.628Z,183.00
2022-09-15T14:38:54.567Z,183.00
2022-09-15T14:39:04.565Z,183.00
2022-09-15T14:39:14.580Z,185.00
2022-09-15T14:39:24.568Z,187.00
2022-09-15T14:39:34.568Z,188.00
2022-09-15T14:39:44.569Z,192.00
2022-09-15T14:39:54.620Z,193.00
2022-09-15T14:40:04.606Z,198.00
2022-09-15T14:40:14.634Z,203.00
2022-09-15T14:40:24.663Z,207.00
2022-09-15T14:40:34.690Z,212.00
2022-09-15T14:40:44.673Z,214.00
2022-09-15T14:40:54.579Z,222.00
2022-09-15T14:41:04.575Z,230.00
2022-09-15T14:41:14.578Z,235.00
2022-09-15T14:41:24.577Z,241.00
2022-09-15T14:41:34.580Z,246.00
2022-09-15T14:41:44.660Z,249.00
2022-09-15T14:41:54.609Z,250.00
2022-09-15T14:42:04.585Z,251.00
2022-09-15T14:42:16.728Z,251.00
2022-09-15T14:42:24.583Z,251.00
2022-09-15T14:42:34.581Z,252.00
2022-09-15T14:42:44.590Z,249.00
2022-09-15T14:42:54.584Z,246.00
2022-09-15T14:43:04.589Z,245.00
2022-09-15T14:43:18.780Z,233.00
2022-09-15T14:43:24.590Z,231.00
2022-09-15T14:43:34.592Z,225.00
2022-09-15T14:43:44.591Z,215.00
2022-09-15T14:43:54.590Z,207.00
2022-09-15T14:44:04.593Z,196.00
2022-09-15T14:44:15.152Z,186.00
2022-09-15T14:45:54.737Z,135.00
2022-09-15T14:45:57.135Z,137.00
2022-09-15T14:46:03.530Z,140.00
2022-09-15T14:46:08.859Z,139.00
2022-09-15T14:46:14.631Z,137.00
2022-09-15T14:46:24.603Z,132.00
2022-09-15T14:46:34.604Z,130.00
2022-09-15T14:46:44.606Z,124.00
2022-09-15T14:46:54.605Z,121.00
2022-09-15T14:47:04.608Z,121.00
2022-09-15T14:47:14.611Z,122.00
2022-09-15T14:47:24.609Z,120.00
2022-09-15T14:47:34.609Z,120.00
2022-09-15T14:47:44.610Z,121.00
2022-09-15T14:47:54.612Z,121.00
2022-09-15T14:48:04.612Z,125.00
2022-09-15T14:48:14.612Z,139.00
2022-09-15T14:48:24.613Z,144.00
2022-09-15T14:48:34.614Z,148.00
2022-09-15T14:48:44.615Z,157.00
2022-09-15T14:48:54.619Z,166.00
2022-09-15T14:49:04.619Z,175.00
2022-09-15T14:49:14.618Z,188.00
2022-09-15T14:49:24.625Z,206.00
2022-09-15T14:49:34.622Z,219.00
2022-09-15T14:49:44.619Z,232.00
2022-09-15T14:49:54.622Z,245.00
2022-09-15T14:50:04.623Z,257.00
2022-09-15T14:50:14.631Z,264.00
2022-09-15T14:50:25.697Z,274.00
2022-09-15T14:50:34.638Z,283.00
2022-09-15T14:50:44.632Z,292.00
2022-09-15T14:50:54.627Z,300.00
2022-09-15T14:51:04.629Z,305.00
2022-09-15T14:51:14.631Z,312.00
2022-09-15T14:51:24.630Z,316.00
2022-09-15T14:51:34.631Z,322.00
2022-09-15T14:51:44.633Z,329.00
2022-09-15T14:51:54.632Z,333.00
2022-09-15T14:52:04.633Z,340.00
2022-09-15T14:52:14.639Z,345.00
2022-09-15T14:52:24.637Z,352.00
2022-09-15T14:52:34.637Z,363.00
2022-09-15T14:52:44.636Z,372.00
2022-09-15T14:52:54.640Z,382.00
2022-09-15T14:53:04.642Z,392.00
2022-09-15T14:53:14.637Z,401.00
2022-09-15T14:53:24.643Z,408.00
2022-09-15T14:53:34.652Z,415.00
2022-09-15T14:53:44.650Z,426.00
2022-09-15T14:53:54.649Z,432.00
2022-09-15T14:54:04.643Z,434.00
2022-09-15T14:54:14.643Z,440.00
2022-09-15T14:54:24.645Z,443.00
2022-09-15T14:54:34.646Z,444.00
2022-09-15T14:54:44.642Z,443.00
2022-09-15T14:54:54.644Z,444.00
2022-09-15T14:55:04.647Z,444.00
2022-09-15T14:55:14.647Z,445.00
2022-09-15T14:55:24.646Z,447.00
2022-09-15T14:55:34.650Z,448.00
2022-09-15T14:55:44.650Z,447.00
2022-09-15T14:55:54.648Z,448.00
2022-09-15T14:56:08.093Z,448.00
2022-09-15T14:56:14.665Z,455.00
2022-09-15T14:56:24.652Z,462.00
2022-09-15T14:56:34.651Z,475.00
2022-09-15T14:56:44.652Z,487.00
2022-09-15T14:56:54.665Z,504.00
2022-09-15T14:57:04.656Z,522.00
2022-09-15T14:57:14.658Z,540.00
2022-09-15T14:57:28.719Z,556.00
2022-09-15T14:57:35.679Z,573.00
2022-09-15T14:57:54.657Z,597.00
2022-09-15T14:58:04.659Z,607.00
2022-09-15T14:58:14.660Z,619.00
2022-09-15T14:58:24.663Z,629.00
2022-09-15T14:58:34.662Z,640.00
2022-09-15T14:58:44.709Z,652.00
2022-09-15T14:58:54.663Z,663.00
2022-09-15T14:59:04.664Z,673.00
2022-09-15T14:59:14.666Z,685.00
2022-09-15T14:59:24.669Z,697.00
2022-09-15T14:59:34.665Z,707.00
2022-09-15T14:59:44.672Z,718.00
2022-09-15T14:59:54.670Z,727.00
2022-09-15T15:00:04.669Z,728.00
2022-09-15T15:00:14.671Z,726.00
2022-09-15T15:00:24.679Z,721.00
2022-09-15T15:00:34.723Z,716.00
2022-09-15T15:00:44.696Z,706.00
2022-09-15T15:00:54.737Z,696.00
2022-09-15T15:01:04.773Z,686.00
2022-09-15T15:01:14.753Z,676.00
2022-09-15T15:01:24.730Z,664.00
2022-09-15T15:01:34.675Z,654.00
2022-09-15T15:01:44.719Z,640.00
2022-09-15T15:01:54.699Z,633.00
2022-09-15T15:02:04.719Z,631.00
2022-09-15T15:02:14.765Z,631.00
2022-09-15T15:02:24.747Z,630.00
2022-09-15T15:02:34.749Z,633.00
2022-09-15T15:02:44.681Z,634.00
2022-09-15T15:02:54.681Z,635.00
2022-09-15T15:03:04.681Z,634.00
2022-09-15T15:03:17.551Z,637.00
2022-09-15T15:03:24.681Z,640.00
2022-09-15T15:03:34.687Z,644.00
2022-09-15T15:03:44.684Z,652.00
2022-09-15T15:03:54.720Z,659.00
2022-09-15T15:04:04.687Z,668.00
2022-09-15T15:04:14.688Z,679.00
2022-09-15T15:04:24.690Z,690.00
2022-09-15T15:04:34.689Z,704.00
2022-09-15T15:04:44.689Z,716.00
2022-09-15T15:04:54.693Z,726.00
2022-09-15T15:05:04.690Z,738.00
2022-09-15T15:05:14.692Z,750.00
2022-09-15T15:05:24.699Z,767.00
2022-09-15T15:05:34.693Z,782.00
2022-09-15T15:05:44.695Z,799.00
2022-09-15T15:06:02.362Z,814.00
2022-09-15T15:06:25.381Z,827.00
2022-09-15T15:06:28.803Z,858.00
2022-09-15T15:06:31.080Z,842.00
2022-09-15T15:06:34.697Z,880.00
2022-09-15T15:06:44.696Z,901.00
2022-09-15T15:06:54.699Z,918.00
2022-09-15T15:07:04.702Z,937.00
2022-09-15T15:07:14.700Z,954.00
2022-09-15T15:07:24.701Z,964.00
2022-09-15T15:07:34.701Z,961.00
2022-09-15T15:07:44.701Z,951.00
2022-09-15T15:07:54.704Z,938.00
2022-09-15T15:08:04.706Z,928.00
2022-09-15T15:08:14.703Z,922.00
2022-09-15T15:08:24.703Z,919.00
2022-09-15T15:08:34.720Z,913.00
2022-09-15T15:08:44.707Z,909.00
2022-09-15T15:08:54.708Z,905.00
2022-09-15T15:09:04.709Z,899.00
2022-09-15T15:09:14.709Z,889.00
2022-09-15T15:09:24.712Z,876.00
2022-09-15T15:09:34.709Z,864.00
2022-09-15T15:09:44.716Z,855.00
2022-09-15T15:09:54.712Z,847.00
2022-09-15T15:10:04.713Z,841.00
2022-09-15T15:10:14.713Z,841.00
2022-09-15T15:10:24.713Z,841.00
2022-09-15T15:10:36.079Z,846.00
2022-09-15T15:10:44.717Z,850.00
2022-09-15T15:10:54.717Z,853.00
2022-09-15T15:11:04.712Z,859.00
2022-09-15T15:11:14.717Z,866.00
2022-09-15T15:11:24.716Z,876.00
2022-09-15T15:11:34.745Z,888.00
2022-09-15T15:11:44.721Z,901.00
2022-09-15T15:11:54.722Z,914.00
2022-09-15T15:12:04.722Z,920.00
2022-09-15T15:12:14.721Z,920.00
2022-09-15T15:12:24.724Z,923.00
2022-09-15T15:12:34.731Z,927.00
2022-09-15T15:12:44.726Z,926.00
2022-09-15T15:12:54.731Z,914.00
2022-09-15T15:13:04.730Z,892.00
2022-09-15T15:13:14.729Z,868.00
2022-09-15T15:13:24.728Z,853.00
2022-09-15T15:13:34.731Z,835.00
2022-09-15T15:13:44.847Z,819.00
2022-09-15T15:13:54.918Z,802.00
2022-09-15T15:14:04.733Z,788.00
2022-09-15T15:14:14.758Z,781.00
2022-09-15T15:14:24.749Z,777.00
2022-09-15T15:14:34.737Z,779.00
2022-09-15T15:14:44.735Z,790.00
2022-09-15T15:14:54.742Z,799.00
2022-09-15T15:15:04.736Z,804.00
2022-09-15T15:15:14.743Z,807.00
2022-09-15T15:15:24.739Z,818.00
2022-09-15T15:15:34.739Z,845.00
2022-09-15T15:15:44.739Z,880.00
2022-09-15T15:15:54.742Z,908.00
2022-09-15T15:16:04.775Z,915.00
2022-09-15T15:16:14.802Z,923.00
2022-09-15T15:16:24.832Z,937.00
2022-09-15T15:16:34.822Z,961.00
2022-09-15T15:16:44.832Z,1009.00
2022-09-15T15:16:54.809Z,1078.00
2022-09-15T15:17:04.816Z,1135.00
2022-09-15T15:17:14.767Z,1170.00
2022-09-15T15:17:24.767Z,1205.00
2022-09-15T15:17:34.750Z,1220.00
2022-09-15T15:17:44.750Z,1216.00
2022-09-15T15:17:54.990Z,1383.00
2022-09-15T15:18:04.752Z,1554.00
2022-09-15T15:18:14.753Z,1607.00
2022-09-15T15:18:28.143Z,1711.00
2022-09-15T15:18:35.782Z,1845.00
2022-09-15T15:18:44.800Z,1886.00
2022-09-15T15:18:54.758Z,1858.00
2022-09-15T15:19:04.760Z,1832.00
2022-09-15T15:19:14.761Z,1809.00
2022-09-15T15:19:24.777Z,1808.00
2022-09-15T15:19:34.763Z,1825.00
2022-09-15T15:19:44.770Z,1846.00
2022-09-15T15:19:54.762Z,1874.00
2022-09-15T15:20:04.763Z,1897.00
2022-09-15T15:20:14.763Z,1921.00
2022-09-15T15:20:24.768Z,1944.00
2022-09-15T15:20:34.769Z,1968.00
2022-09-15T15:20:44.782Z,2017.00
2022-09-15T15:20:54.770Z,1973.00
2022-09-15T15:21:04.768Z,1924.00
2022-09-15T15:21:14.768Z,1928.00
2022-09-15T15:21:24.771Z,1839.00
2022-09-15T15:21:34.772Z,1758.00
2022-09-15T15:21:44.770Z,1681.00
2022-09-15T15:21:54.772Z,1616.00
2022-09-15T15:22:04.773Z,1562.00
2022-09-15T15:22:14.779Z,1528.00
2022-09-15T15:22:24.774Z,1506.00
2022-09-15T15:22:34.774Z,1498.00
2022-09-15T15:22:44.774Z,1505.00
2022-09-15T15:22:54.778Z,1509.00
2022-09-15T15:23:04.793Z,1011.00
2022-09-15T15:23:14.780Z,1945.00
2022-09-15T15:23:24.778Z,1573.00
2022-09-15T15:23:34.780Z,1496.00
2022-09-15T15:23:46.882Z,1379.00
2022-09-15T15:23:54.919Z,1286.00
2022-09-15T15:24:04.791Z,1219.00
2022-09-15T15:24:14.788Z,1170.00
2022-09-15T15:24:24.805Z,1129.00
2022-09-15T15:24:34.786Z,1093.00
2022-09-15T15:24:44.788Z,1059.00
2022-09-15T15:24:54.796Z,1025.00
2022-09-15T15:25:04.792Z,1005.00
2022-09-15T15:25:14.793Z,992.00
2022-09-15T15:25:24.792Z,971.00
2022-09-15T15:25:34.791Z,947.00
2022-09-15T15:25:44.794Z,924.00
2022-09-15T15:25:54.797Z,891.00
2022-09-15T15:26:04.794Z,856.00
2022-09-15T15:26:14.796Z,819.00
2022-09-15T15:26:24.799Z,791.00
2022-09-15T15:26:34.799Z,775.00
2022-09-15T15:26:44.800Z,752.00
2022-09-15T15:26:54.800Z,727.00
2022-09-15T15:27:04.801Z,704.00
2022-09-15T15:27:14.805Z,688.00
2022-09-15T15:27:24.809Z,666.00
2022-09-15T15:27:34.804Z,645.00
2022-09-15T15:27:44.811Z,624.00
2022-09-15T15:27:54.806Z,600.00
2022-09-15T15:28:04.805Z,578.00
2022-09-15T15:28:14.807Z,560.00
2022-09-15T15:28:24.808Z,539.00
2022-09-15T15:28:34.846Z,523.00
2022-09-15T15:28:44.809Z,504.00
2022-09-15T15:28:54.813Z,484.00
2022-09-15T15:29:04.813Z,465.00
2022-09-15T15:29:14.814Z,451.00
2022-09-15T15:29:24.827Z,439.00
2022-09-15T15:29:34.813Z,430.00
2022-09-15T15:29:44.819Z,423.00
2022-09-15T15:29:54.821Z,412.00
2022-09-15T15:30:04.821Z,405.00
2022-09-15T15:30:14.818Z,397.00
2022-09-15T15:30:24.819Z,390.00
2022-09-15T15:30:34.869Z,383.00
2022-09-15T15:30:44.831Z,375.00
2022-09-15T15:30:54.820Z,369.00
2022-09-15T15:31:04.824Z,366.00
2022-09-15T15:31:14.862Z,359.00
2022-09-15T15:31:24.886Z,352.00
2022-09-15T15:31:34.865Z,345.00
2022-09-15T15:31:44.869Z,341.00
2022-09-15T15:31:54.899Z,334.00
2022-09-15T15:32:04.872Z,332.00
2022-09-15T15:32:14.834Z,327.00
2022-09-15T15:32:24.831Z,326.00
2022-09-15T15:32:34.918Z,324.00
2022-09-15T15:32:44.831Z,319.00
2022-09-15T15:32:54.835Z,313.00
2022-09-15T15:33:04.836Z,308.00
2022-09-15T15:33:19.329Z,306.00
2022-09-15T15:33:24.838Z,301.00
2022-09-15T15:33:34.837Z,300.00
2022-09-15T15:33:44.865Z,299.00
2022-09-15T15:33:54.853Z,298.00
2022-09-15T15:34:04.840Z,297.00
2022-09-15T15:34:14.842Z,294.00
2022-09-15T15:34:24.875Z,295.00
2022-09-15T15:34:34.844Z,294.00
2022-09-15T15:34:44.844Z,294.00
2022-09-15T15:34:54.847Z,297.00
2022-09-15T15:35:04.844Z,294.00
2022-09-15T15:35:14.854Z,295.00
2022-09-15T15:35:24.852Z,293.00
2022-09-15T15:35:34.852Z,292.00
2022-09-15T15:35:44.848Z,289.00
2022-09-15T15:35:54.853Z,288.00
2022-09-15T15:36:04.868Z,286.00
2022-09-15T15:36:14.850Z,284.00
2022-09-15T15:36:24.851Z,282.00
2022-09-15T15:36:34.862Z,276.00
2022-09-15T15:36:44.857Z,274.00
2022-09-15T15:36:54.853Z,271.00
2022-09-15T15:37:04.857Z,269.00
2022-09-15T15:37:14.858Z,267.00
2022-09-15T15:37:24.862Z,265.00
2022-09-15T15:37:34.859Z,264.00
2022-09-15T15:37:44.860Z,263.00
2022-09-15T15:37:54.860Z,262.00
2022-09-15T15:38:04.860Z,260.00
2022-09-15T15:38:14.862Z,260.00
2022-09-15T15:38:24.863Z,258.00
2022-09-15T15:38:34.864Z,253.00
2022-09-15T15:38:47.393Z,254.00
2022-09-15T15:38:54.949Z,251.00
2022-09-15T15:39:04.867Z,245.00
2022-09-15T15:39:14.869Z,241.00
2022-09-15T15:39:24.885Z,235.00
2022-09-15T15:39:34.870Z,230.00
2022-09-15T15:39:44.872Z,226.00
2022-09-15T15:39:54.964Z,221.00
2022-09-15T15:40:04.917Z,216.00
2022-09-15T15:40:14.955Z,210.00
2022-09-15T15:40:24.889Z,205.00
2022-09-15T15:40:34.959Z,201.00
2022-09-15T15:40:44.876Z,198.00
2022-09-15T15:40:54.880Z,192.00
2022-09-15T15:41:04.878Z,189.00
2022-09-15T15:41:14.880Z,186.00
2022-09-15T15:41:24.883Z,183.00
2022-09-15T15:41:34.958Z,179.00
2022-09-15T15:41:44.945Z,178.00
2022-09-15T15:41:54.885Z,176.00
2022-09-15T15:42:04.883Z,172.00
2022-09-15T15:42:14.885Z,172.00
2022-09-15T15:42:24.887Z,170.00
2022-09-15T15:42:34.886Z,169.00
2022-09-15T15:42:44.887Z,167.00
2022-09-15T15:42:57.801Z,166.00
2022-09-15T15:43:05.889Z,163.00
2022-09-15T15:43:14.890Z,161.00
2022-09-15T15:43:24.891Z,161.00
2022-09-15T15:43:34.891Z,159.00
2022-09-15T15:43:44.996Z,158.00
2022-09-15T15:43:54.894Z,158.00
2022-09-15T15:44:04.896Z,156.00
2022-09-15T15:44:14.911Z,155.00
2022-09-15T15:44:24.913Z,153.00
2022-09-15T15:44:34.899Z,153.00
2022-09-15T15:44:44.899Z,151.00
2022-09-15T15:44:54.902Z,149.00
2022-09-15T15:45:04.899Z,148.00
2022-09-15T15:45:14.901Z,145.00
2022-09-15T15:45:24.961Z,145.00
2022-09-15T15:45:34.981Z,144.00
2022-09-15T15:45:44.963Z,143.00
2022-09-15T15:45:54.975Z,142.00
2022-09-15T15:46:04.973Z,141.00
2022-09-15T15:46:14.950Z,141.00
2022-09-15T15:46:24.913Z,139.00
2022-09-15T15:46:34.908Z,140.00
2022-09-15T15:46:44.909Z,140.00
2022-09-15T15:46:54.913Z,137.00
2022-09-15T15:47:04.912Z,137.00
2022-09-15T15:47:14.911Z,137.00
2022-09-15T15:47:24.911Z,136.00
2022-09-15T15:47:34.914Z,136.00
2022-09-15T15:47:44.918Z,137.00
2022-09-15T15:47:54.912Z,137.00
2022-09-15T15:48:04.912Z,140.00
2022-09-15T15:48:14.916Z,141.00
2022-09-15T15:48:24.915Z,141.00
2022-09-15T15:48:37.898Z,142.00
2022-09-15T15:48:44.917Z,144.00
2022-09-15T15:48:54.919Z,144.00
2022-09-15T15:49:04.921Z,144.00
2022-09-15T15:49:14.919Z,144.00
2022-09-15T15:49:24.935Z,143.00
2022-09-15T15:49:39.129Z,142.00
2022-09-15T15:50:11.742Z,142.00
2022-09-15T15:50:12.216Z,140.00
2022-09-15T15:50:14.264Z,140.00
2022-09-15T15:50:15.997Z,137.00
2022-09-15T15:50:24.926Z,135.00
2022-09-15T15:50:34.928Z,136.00
2022-09-15T15:50:44.929Z,136.00
2022-09-15T15:50:54.930Z,134.00
2022-09-15T15:51:04.934Z,134.00
2022-09-15T15:51:14.933Z,132.00
2022-09-15T15:51:24.932Z,132.00
2022-09-15T15:51:34.933Z,131.00
2022-09-15T15:51:44.933Z,131.00
2022-09-15T15:51:54.932Z,128.00
2022-09-15T15:52:04.936Z,127.00
2022-09-15T15:52:14.933Z,126.00
2022-09-15T15:52:24.935Z,127.00
2022-09-15T15:52:34.935Z,128.00
2022-09-15T15:52:44.956Z,129.00
2022-09-15T15:52:54.944Z,131.00
2022-09-15T15:53:04.938Z,134.00
2022-09-15T15:53:14.937Z,135.00
2022-09-15T15:53:24.941Z,138.00
2022-09-15T15:53:34.940Z,140.00
2022-09-15T15:53:44.940Z,140.00
2022-09-15T15:53:54.942Z,140.00
2022-09-15T15:54:04.943Z,138.00
2022-09-15T15:54:14.941Z,135.00
2022-09-15T15:54:24.962Z,132.00
2022-09-15T15:54:34.943Z,128.00
2022-09-15T15:54:44.946Z,124.00
2022-09-15T15:54:54.949Z,122.00
2022-09-15T15:55:04.948Z,119.00
2022-09-15T15:55:14.949Z,115.00
2022-09-15T15:55:24.963Z,114.00
2022-09-15T15:55:34.950Z,110.00
2022-09-15T15:55:44.953Z,108.00
2022-09-15T15:55:54.950Z,105.00
2022-09-15T15:56:04.952Z,105.00
2022-09-15T15:56:14.952Z,103.00
2022-09-15T15:56:24.953Z,101.00
2022-09-15T15:56:37.882Z,101.00
2022-09-15T15:56:44.957Z,100.00
2022-09-15T15:56:54.957Z,100.00
2022-09-15T15:57:04.979Z,100.00
2022-09-15T15:57:14.960Z,100.00
2022-09-15T15:57:24.961Z,100.00
2022-09-15T15:57:34.962Z,100.00
2022-09-15T15:57:44.962Z,100.00
2022-09-15T15:57:54.962Z,101.00
2022-09-15T15:58:04.963Z,102.00
2022-09-15T15:58:14.965Z,102.00
2022-09-15T15:58:24.965Z,103.00
2022-09-15T15:58:34.965Z,105.00
2022-09-15T15:58:45.004Z,106.00
2022-09-15T15:58:54.967Z,107.00
2022-09-15T15:59:04.968Z,109.00
2022-09-15T15:59:14.981Z,109.00
2022-09-15T15:59:25.018Z,109.00
2022-09-15T15:59:34.969Z,108.00
2022-09-15T15:59:44.970Z,109.00
2022-09-15T15:59:54.972Z,107.00
2022-09-15T16:00:04.973Z,106.00
2022-09-15T16:00:20.356Z,104.00
2022-09-15T16:00:25.976Z,101.00
2022-09-15T16:00:34.993Z,96.00
2022-09-15T16:00:45.036Z,96.00
2022-09-15T16:00:55.005Z,92.00
2022-09-15T16:01:05.030Z,89.00
2022-09-15T16:01:15.037Z,88.00
2022-09-15T16:01:25.050Z,87.00
2022-09-15T16:01:35.027Z,87.00
2022-09-15T16:01:45.036Z,86.00
2022-09-15T16:01:55.012Z,86.00
2022-09-15T16:02:05.031Z,87.00
2022-09-15T16:02:15.038Z,88.00
2022-09-15T16:02:25.077Z,87.00
2022-09-15T16:02:34.987Z,88.00
2022-09-15T16:02:44.987Z,89.00
2022-09-15T16:02:54.989Z,90.00
2022-09-15T16:03:04.991Z,90.00
2022-09-15T16:03:14.990Z,87.00
2022-09-15T16:03:24.999Z,86.00
2022-09-15T16:03:34.992Z,84.00
2022-09-15T16:03:44.997Z,81.00
2022-09-15T16:03:54.993Z,78.00
2022-09-15T16:04:04.993Z,76.00
2022-09-15T16:04:15.005Z,72.00
2022-09-15T16:04:24.995Z,69.00
2022-09-15T16:04:34.999Z,66.00
2022-09-15T16:04:44.996Z,64.00
2022-09-15T16:04:54.999Z,61.00
2022-09-15T16:05:05.000Z,61.00
2022-09-15T16:05:15.005Z,61.00
2022-09-15T16:05:25.001Z,61.00
2022-09-15T16:05:35.007Z,62.00
2022-09-15T16:05:45.011Z,62.00
2022-09-15T16:05:55.003Z,63.00
2022-09-15T16:06:05.027Z,66.00
2022-09-15T16:06:15.004Z,66.00
2022-09-15T16:06:25.006Z,67.00
2022-09-15T16:06:35.010Z,67.00
2022-09-15T16:06:45.008Z,67.00
2022-09-15T16:06:55.010Z,69.00
2022-09-15T16:07:05.010Z,70.00
2022-09-15T16:07:15.012Z,70.00
2022-09-15T16:07:25.010Z,70.00
2022-09-15T16:07:35.012Z,70.00
2022-09-15T16:07:45.014Z,70.00
2022-09-15T16:07:55.014Z,70.00
2022-09-15T16:08:05.017Z,70.00
2022-09-15T16:08:15.043Z,71.00
2022-09-15T16:08:25.020Z,71.00
2022-09-15T16:08:35.021Z,72.00
2022-09-15T16:08:45.020Z,76.00
2022-09-15T16:08:55.020Z,80.00
2022-09-15T16:09:05.020Z,82.00
2022-09-15T16:09:15.022Z,85.00
2022-09-15T16:09:25.020Z,88.00
2022-09-15T16:09:35.027Z,91.00
2022-09-15T16:09:45.024Z,93.00
2022-09-15T16:09:55.024Z,95.00
2022-09-15T16:10:05.054Z,95.00
2022-09-15T16:10:15.024Z,98.00
2022-09-15T16:10:25.027Z,100.00
2022-09-15T16:10:35.030Z,102.00
2022-09-15T16:10:45.029Z,106.00
2022-09-15T16:10:55.029Z,110.00
2022-09-15T16:11:05.029Z,113.00
2022-09-15T16:11:15.029Z,114.00
2022-09-15T16:11:25.036Z,120.00
2022-09-15T16:11:35.033Z,123.00
2022-09-15T16:11:45.093Z,125.00
2022-09-15T16:11:55.035Z,126.00
2022-09-15T16:12:05.036Z,128.00
2022-09-15T16:12:15.037Z,131.00
2022-09-15T16:12:25.039Z,132.00
2022-09-15T16:12:35.586Z,132.00
2022-09-15T16:12:45.035Z,136.00
2022-09-15T16:12:55.038Z,136.00
2022-09-15T16:13:05.040Z,141.00
2022-09-15T16:13:15.043Z,142.00
2022-09-15T16:13:25.039Z,145.00
2022-09-15T16:13:35.066Z,150.00
2022-09-15T16:13:45.101Z,151.00
2022-09-15T16:13:55.043Z,152.00
2022-09-15T16:14:05.046Z,156.00
2022-09-15T16:14:15.047Z,157.00
2022-09-15T16:14:25.045Z,158.00
2022-09-15T16:14:35.048Z,161.00
2022-09-15T16:14:45.047Z,164.00
2022-09-15T16:14:55.049Z,165.00
2022-09-15T16:15:05.050Z,167.00
2022-09-15T16:15:15.049Z,170.00